sensor_id;sensor_type;location;lat;lon;timestamp;temperature;humidity
45535;DHT22;35892;48.798;9.698;2022-07-29T00:01:40;18.30;99.90
45535;DHT22;35892;48.798;9.698;2022-07-29T00:04:09;18.40;99.90
45535;DHT22;35892;48.798;9.698;2022-07-29T00:06:39;18.30;99.90
45535;DHT22;35892;48.798;9.698;2022-07-29T00:09:08;18.40;99.90
45535;DHT22;35892;48.798;9.698;2022-07-29T00:11:37;18.30;99.90
45535;DHT22;35892;48.798;9.698;2022-07-29T00:14:04;18.30;99.90
45535;DHT22;35892;48.798;9.698;2022-07-29T00:16:36;18.30;99.90
45535;DHT22;35892;48.798;9.698;2022-07-29T00:19:03;18.30;99.90
45535;DHT22;35892;48.798;9.698;2022-07-29T00:21:30;18.20;99.90
45535;DHT22;35892;48.798;9.698;2022-07-29T00:23:57;18.30;99.90
45535;DHT22;35892;48.798;9.698;2022-07-29T00:26:24;18.30;99.90
45535;DHT22;35892;48.798;9.698;2022-07-29T00:29:02;18.20;99.90
45535;DHT22;35892;48.798;9.698;2022-07-29T00:31:51;18.00;99.90
45535;DHT22;35892;48.798;9.698;2022-07-29T00:34:21;18.10;99.90
45535;DHT22;35892;48.798;9.698;2022-07-29T00:37:06;18.30;99.90
45535;DHT22;35892;48.798;9.698;2022-07-29T00:39:33;18.20;99.90
45535;DHT22;35892;48.798;9.698;2022-07-29T00:42:03;18.00;99.90
45535;DHT22;35892;48.798;9.698;2022-07-29T00:44:38;18.00;99.90
45535;DHT22;35892;48.798;9.698;2022-07-29T00:47:05;17.90;99.90
45535;DHT22;35892;48.798;9.698;2022-07-29T00:49:34;17.90;99.90
45535;DHT22;35892;48.798;9.698;2022-07-29T00:52:07;18.00;99.90
45535;DHT22;35892;48.798;9.698;2022-07-29T00:54:42;18.00;99.90
45535;DHT22;35892;48.798;9.698;2022-07-29T00:57:12;18.00;99.90
45535;DHT22;35892;48.798;9.698;2022-07-29T00:59:39;18.00;99.90
45535;DHT22;35892;48.798;9.698;2022-07-29T01:02:06;18.10;99.90
45535;DHT22;35892;48.798;9.698;2022-07-29T01:04:33;18.20;99.90
45535;DHT22;35892;48.798;9.698;2022-07-29T01:07:03;18.10;99.90
45535;DHT22;35892;48.798;9.698;2022-07-29T01:09:34;18.20;99.90
45535;DHT22;35892;48.798;9.698;2022-07-29T01:12:21;18.20;99.90
45535;DHT22;35892;48.798;9.698;2022-07-29T01:14:50;18.10;99.90
45535;DHT22;35892;48.798;9.698;2022-07-29T01:17:24;18.10;99.90
45535;DHT22;35892;48.798;9.698;2022-07-29T01:23:05;18.10;99.90
45535;DHT22;35892;48.798;9.698;2022-07-29T01:31:09;18.10;99.90
45535;DHT22;35892;48.798;9.698;2022-07-29T01:33:57;18.10;99.90
45535;DHT22;35892;48.798;9.698;2022-07-29T01:36:34;18.10;99.90
45535;DHT22;35892;48.798;9.698;2022-07-29T01:39:08;18.20;99.90
45535;DHT22;35892;48.798;9.698;2022-07-29T01:41:40;18.20;99.90
45535;DHT22;35892;48.798;9.698;2022-07-29T01:44:20;18.10;99.90
45535;DHT22;35892;48.798;9.698;2022-07-29T01:46:58;18.10;99.90
45535;DHT22;35892;48.798;9.698;2022-07-29T01:49:30;18.10;99.90
45535;DHT22;35892;48.798;9.698;2022-07-29T01:52:07;18.20;99.90
45535;DHT22;35892;48.798;9.698;2022-07-29T01:54:56;18.20;99.90
45535;DHT22;35892;48.798;9.698;2022-07-29T01:57:31;18.20;99.90
45535;DHT22;35892;48.798;9.698;2022-07-29T02:00:01;18.20;99.90
45535;DHT22;35892;48.798;9.698;2022-07-29T02:02:31;18.20;99.90
45535;DHT22;35892;48.798;9.698;2022-07-29T02:05:01;18.10;99.90
45535;DHT22;35892;48.798;9.698;2022-07-29T02:07:34;18.10;99.90
45535;DHT22;35892;48.798;9.698;2022-07-29T02:10:04;18.10;99.90
45535;DHT22;35892;48.798;9.698;2022-07-29T02:12:33;18.10;99.90
45535;DHT22;35892;48.798;9.698;2022-07-29T02:15:07;18.10;99.90
45535;DHT22;35892;48.798;9.698;2022-07-29T02:17:45;18.00;99.90
45535;DHT22;35892;48.798;9.698;2022-07-29T02:20:17;18.10;99.90
45535;DHT22;35892;48.798;9.698;2022-07-29T02:22:47;18.10;99.90
45535;DHT22;35892;48.798;9.698;2022-07-29T02:25:16;18.00;99.90
45535;DHT22;35892;48.798;9.698;2022-07-29T02:27:44;17.90;99.90
45535;DHT22;35892;48.798;9.698;2022-07-29T02:30:16;17.80;99.90
45535;DHT22;35892;48.798;9.698;2022-07-29T02:32:45;17.80;99.90
45535;DHT22;35892;48.798;9.698;2022-07-29T02:35:14;17.80;99.90
45535;DHT22;35892;48.798;9.698;2022-07-29T02:37:43;17.70;99.90
45535;DHT22;35892;48.798;9.698;2022-07-29T02:40:11;17.70;99.90
45535;DHT22;35892;48.798;9.698;2022-07-29T02:42:42;17.60;99.90
45535;DHT22;35892;48.798;9.698;2022-07-29T02:45:10;17.70;99.90
45535;DHT22;35892;48.798;9.698;2022-07-29T02:47:43;17.70;99.90
45535;DHT22;35892;48.798;9.698;2022-07-29T02:50:20;17.70;99.90
45535;DHT22;35892;48.798;9.698;2022-07-29T02:55:34;17.60;99.90
45535;DHT22;35892;48.798;9.698;2022-07-29T02:58:08;17.70;99.90
45535;DHT22;35892;48.798;9.698;2022-07-29T03:00:38;17.70;99.90
45535;DHT22;35892;48.798;9.698;2022-07-29T03:03:11;17.60;99.90
45535;DHT22;35892;48.798;9.698;2022-07-29T03:05:38;17.60;99.90
45535;DHT22;35892;48.798;9.698;2022-07-29T03:08:08;17.50;99.90
45535;DHT22;35892;48.798;9.698;2022-07-29T03:10:39;17.50;99.90
45535;DHT22;35892;48.798;9.698;2022-07-29T03:13:09;17.50;99.90
45535;DHT22;35892;48.798;9.698;2022-07-29T03:15:37;17.40;99.90
45535;DHT22;35892;48.798;9.698;2022-07-29T03:18:05;17.50;99.90
45535;DHT22;35892;48.798;9.698;2022-07-29T03:20:32;17.50;99.90
45535;DHT22;35892;48.798;9.698;2022-07-29T03:22:59;17.50;99.90
45535;DHT22;35892;48.798;9.698;2022-07-29T03:25:26;17.50;99.90
45535;DHT22;35892;48.798;9.698;2022-07-29T03:27:53;17.50;99.90
45535;DHT22;35892;48.798;9.698;2022-07-29T03:30:23;17.40;99.90
45535;DHT22;35892;48.798;9.698;2022-07-29T03:32:50;17.50;99.90
45535;DHT22;35892;48.798;9.698;2022-07-29T03:35:19;17.50;99.90
45535;DHT22;35892;48.798;9.698;2022-07-29T03:37:48;17.50;99.90
45535;DHT22;35892;48.798;9.698;2022-07-29T03:40:30;17.60;99.90
45535;DHT22;35892;48.798;9.698;2022-07-29T03:43:00;17.60;99.90
45535;DHT22;35892;48.798;9.698;2022-07-29T03:45:29;17.60;99.90
45535;DHT22;35892;48.798;9.698;2022-07-29T03:48:00;17.60;99.90
45535;DHT22;35892;48.798;9.698;2022-07-29T03:50:30;17.50;99.90
45535;DHT22;35892;48.798;9.698;2022-07-29T03:52:57;17.60;99.90
45535;DHT22;35892;48.798;9.698;2022-07-29T03:55:25;17.60;99.90
45535;DHT22;35892;48.798;9.698;2022-07-29T03:57:53;17.60;99.90
45535;DHT22;35892;48.798;9.698;2022-07-29T04:00:26;17.60;99.90
45535;DHT22;35892;48.798;9.698;2022-07-29T04:02:57;17.60;99.90
45535;DHT22;35892;48.798;9.698;2022-07-29T04:05:26;17.70;99.90
45535;DHT22;35892;48.798;9.698;2022-07-29T04:07:53;17.70;99.90
45535;DHT22;35892;48.798;9.698;2022-07-29T04:10:22;17.80;99.90
45535;DHT22;35892;48.798;9.698;2022-07-29T04:13:00;17.80;99.90
45535;DHT22;35892;48.798;9.698;2022-07-29T04:15:29;17.70;99.90
45535;DHT22;35892;48.798;9.698;2022-07-29T04:17:59;17.80;99.90
45535;DHT22;35892;48.798;9.698;2022-07-29T04:20:28;17.70;99.90
45535;DHT22;35892;48.798;9.698;2022-07-29T04:22:56;17.80;99.90
45535;DHT22;35892;48.798;9.698;2022-07-29T04:25:26;17.80;99.90
45535;DHT22;35892;48.798;9.698;2022-07-29T04:27:55;17.90;99.90
45535;DHT22;35892;48.798;9.698;2022-07-29T04:30:29;17.90;99.90
45535;DHT22;35892;48.798;9.698;2022-07-29T04:33:02;17.80;99.90
45535;DHT22;35892;48.798;9.698;2022-07-29T04:35:37;17.80;99.90
45535;DHT22;35892;48.798;9.698;2022-07-29T04:38:16;17.80;99.90
45535;DHT22;35892;48.798;9.698;2022-07-29T04:40:45;17.80;99.90
45535;DHT22;35892;48.798;9.698;2022-07-29T04:43:12;17.80;99.90
45535;DHT22;35892;48.798;9.698;2022-07-29T04:45:41;17.60;99.90
45535;DHT22;35892;48.798;9.698;2022-07-29T04:48:10;17.60;99.90
45535;DHT22;35892;48.798;9.698;2022-07-29T04:50:40;17.70;99.90
45535;DHT22;35892;48.798;9.698;2022-07-29T04:53:13;17.80;99.90
45535;DHT22;35892;48.798;9.698;2022-07-29T04:55:39;17.90;99.90
45535;DHT22;35892;48.798;9.698;2022-07-29T04:58:06;17.90;99.90
45535;DHT22;35892;48.798;9.698;2022-07-29T05:00:34;17.90;99.90
45535;DHT22;35892;48.798;9.698;2022-07-29T05:03:01;17.90;99.90
45535;DHT22;35892;48.798;9.698;2022-07-29T05:05:30;17.90;99.90
45535;DHT22;35892;48.798;9.698;2022-07-29T05:07:58;18.00;99.90
45535;DHT22;35892;48.798;9.698;2022-07-29T05:10:25;18.10;99.90
45535;DHT22;35892;48.798;9.698;2022-07-29T05:12:52;18.20;99.90
45535;DHT22;35892;48.798;9.698;2022-07-29T05:15:18;18.30;99.90
45535;DHT22;35892;48.798;9.698;2022-07-29T05:17:49;18.30;99.90
45535;DHT22;35892;48.798;9.698;2022-07-29T05:20:21;18.30;99.90
45535;DHT22;35892;48.798;9.698;2022-07-29T05:22:57;18.40;99.90
45535;DHT22;35892;48.798;9.698;2022-07-29T05:25:30;18.30;99.90
45535;DHT22;35892;48.798;9.698;2022-07-29T05:28:12;18.30;99.90
45535;DHT22;35892;48.798;9.698;2022-07-29T05:30:39;18.30;99.90
45535;DHT22;35892;48.798;9.698;2022-07-29T05:33:08;18.30;99.90
45535;DHT22;35892;48.798;9.698;2022-07-29T05:35:55;18.40;99.90
45535;DHT22;35892;48.798;9.698;2022-07-29T05:38:26;18.30;99.90
45535;DHT22;35892;48.798;9.698;2022-07-29T05:40:59;18.20;99.90
45535;DHT22;35892;48.798;9.698;2022-07-29T05:43:29;18.30;99.90
45535;DHT22;35892;48.798;9.698;2022-07-29T05:45:56;18.30;99.90
45535;DHT22;35892;48.798;9.698;2022-07-29T05:48:26;18.40;99.90
45535;DHT22;35892;48.798;9.698;2022-07-29T05:50:54;18.50;99.90
45535;DHT22;35892;48.798;9.698;2022-07-29T05:53:21;18.60;99.90
45535;DHT22;35892;48.798;9.698;2022-07-29T05:55:48;18.60;99.90
45535;DHT22;35892;48.798;9.698;2022-07-29T05:58:15;18.70;99.90
45535;DHT22;35892;48.798;9.698;2022-07-29T06:00:46;18.80;99.90
45535;DHT22;35892;48.798;9.698;2022-07-29T06:03:16;18.80;99.90
45535;DHT22;35892;48.798;9.698;2022-07-29T06:05:45;18.80;99.90
45535;DHT22;35892;48.798;9.698;2022-07-29T06:08:14;18.80;99.90
45535;DHT22;35892;48.798;9.698;2022-07-29T06:10:43;18.90;99.90
45535;DHT22;35892;48.798;9.698;2022-07-29T06:13:10;19.00;99.90
45535;DHT22;35892;48.798;9.698;2022-07-29T06:15:40;19.20;99.90
45535;DHT22;35892;48.798;9.698;2022-07-29T06:18:06;19.40;99.90
45535;DHT22;35892;48.798;9.698;2022-07-29T06:20:36;19.70;99.90
45535;DHT22;35892;48.798;9.698;2022-07-29T06:23:03;19.90;99.90
45535;DHT22;35892;48.798;9.698;2022-07-29T06:25:33;20.00;99.90
45535;DHT22;35892;48.798;9.698;2022-07-29T06:28:02;20.20;99.90
45535;DHT22;35892;48.798;9.698;2022-07-29T06:30:32;20.40;99.90
45535;DHT22;35892;48.798;9.698;2022-07-29T06:32:59;20.40;99.90
45535;DHT22;35892;48.798;9.698;2022-07-29T06:35:28;20.50;99.90
45535;DHT22;35892;48.798;9.698;2022-07-29T06:38:10;20.40;99.90
45535;DHT22;35892;48.798;9.698;2022-07-29T06:40:59;20.40;99.90
45535;DHT22;35892;48.798;9.698;2022-07-29T06:43:33;20.30;99.90
45535;DHT22;35892;48.798;9.698;2022-07-29T06:46:18;20.30;99.90
45535;DHT22;35892;48.798;9.698;2022-07-29T06:48:46;20.20;99.90
45535;DHT22;35892;48.798;9.698;2022-07-29T06:51:15;20.30;99.90
45535;DHT22;35892;48.798;9.698;2022-07-29T06:53:50;20.30;99.90
45535;DHT22;35892;48.798;9.698;2022-07-29T06:56:32;20.30;99.90
45535;DHT22;35892;48.798;9.698;2022-07-29T06:59:06;20.40;99.90
45535;DHT22;35892;48.798;9.698;2022-07-29T07:01:33;20.50;99.90
45535;DHT22;35892;48.798;9.698;2022-07-29T07:04:01;20.60;99.90
45535;DHT22;35892;48.798;9.698;2022-07-29T07:06:31;20.70;99.90
45535;DHT22;35892;48.798;9.698;2022-07-29T07:09:02;20.70;99.90
45535;DHT22;35892;48.798;9.698;2022-07-29T07:11:31;20.90;99.90
45535;DHT22;35892;48.798;9.698;2022-07-29T07:13:58;21.00;99.90
45535;DHT22;35892;48.798;9.698;2022-07-29T07:16:30;21.20;99.90
45535;DHT22;35892;48.798;9.698;2022-07-29T07:19:01;21.40;99.90
45535;DHT22;35892;48.798;9.698;2022-07-29T07:21:29;21.60;99.90
45535;DHT22;35892;48.798;9.698;2022-07-29T07:23:57;21.70;99.90
45535;DHT22;35892;48.798;9.698;2022-07-29T07:26:24;21.70;99.90
45535;DHT22;35892;48.798;9.698;2022-07-29T07:28:51;21.70;99.90
45535;DHT22;35892;48.798;9.698;2022-07-29T07:31:18;21.90;99.90
45535;DHT22;35892;48.798;9.698;2022-07-29T07:33:45;22.10;99.90
45535;DHT22;35892;48.798;9.698;2022-07-29T07:36:12;22.30;99.90
45535;DHT22;35892;48.798;9.698;2022-07-29T07:38:38;22.50;99.90
45535;DHT22;35892;48.798;9.698;2022-07-29T07:41:05;22.60;99.90
45535;DHT22;35892;48.798;9.698;2022-07-29T07:43:34;22.80;99.90
45535;DHT22;35892;48.798;9.698;2022-07-29T07:46:01;22.80;99.90
45535;DHT22;35892;48.798;9.698;2022-07-29T07:48:30;22.80;99.90
45535;DHT22;35892;48.798;9.698;2022-07-29T07:50:57;22.70;99.90
45535;DHT22;35892;48.798;9.698;2022-07-29T07:53:24;22.70;99.90
45535;DHT22;35892;48.798;9.698;2022-07-29T07:55:56;22.80;99.90
45535;DHT22;35892;48.798;9.698;2022-07-29T07:58:37;23.00;99.90
45535;DHT22;35892;48.798;9.698;2022-07-29T08:01:06;23.30;99.90
45535;DHT22;35892;48.798;9.698;2022-07-29T08:03:33;23.50;99.90
45535;DHT22;35892;48.798;9.698;2022-07-29T08:06:00;23.70;99.90
45535;DHT22;35892;48.798;9.698;2022-07-29T08:08:27;23.70;99.90
45535;DHT22;35892;48.798;9.698;2022-07-29T08:10:54;23.70;99.90
45535;DHT22;35892;48.798;9.698;2022-07-29T08:13:25;23.80;99.90
45535;DHT22;35892;48.798;9.698;2022-07-29T08:16:02;23.70;99.90
45535;DHT22;35892;48.798;9.698;2022-07-29T08:18:39;23.80;99.90
45535;DHT22;35892;48.798;9.698;2022-07-29T08:21:07;24.10;99.90
45535;DHT22;35892;48.798;9.698;2022-07-29T08:23:34;24.20;99.90
45535;DHT22;35892;48.798;9.698;2022-07-29T08:26:20;24.40;99.90
45535;DHT22;35892;48.798;9.698;2022-07-29T08:28:48;24.40;99.90
45535;DHT22;35892;48.798;9.698;2022-07-29T08:31:17;24.50;99.90
45535;DHT22;35892;48.798;9.698;2022-07-29T08:33:44;24.40;99.90
45535;DHT22;35892;48.798;9.698;2022-07-29T08:36:11;24.30;99.90
45535;DHT22;35892;48.798;9.698;2022-07-29T08:38:44;24.40;99.90
45535;DHT22;35892;48.798;9.698;2022-07-29T08:41:13;24.60;99.90
45535;DHT22;35892;48.798;9.698;2022-07-29T08:43:40;24.80;99.90
45535;DHT22;35892;48.798;9.698;2022-07-29T08:46:08;24.90;99.30
45535;DHT22;35892;48.798;9.698;2022-07-29T08:48:36;24.90;98.30
45535;DHT22;35892;48.798;9.698;2022-07-29T08:51:03;24.90;97.80
45535;DHT22;35892;48.798;9.698;2022-07-29T08:53:32;24.90;98.10
45535;DHT22;35892;48.798;9.698;2022-07-29T08:56:00;24.90;98.40
45535;DHT22;35892;48.798;9.698;2022-07-29T08:58:31;24.90;98.10
45535;DHT22;35892;48.798;9.698;2022-07-29T09:01:03;24.80;97.80
45535;DHT22;35892;48.798;9.698;2022-07-29T09:03:35;24.60;98.00
45535;DHT22;35892;48.798;9.698;2022-07-29T09:06:03;24.50;98.10
45535;DHT22;35892;48.798;9.698;2022-07-29T09:08:33;24.60;98.20
45535;DHT22;35892;48.798;9.698;2022-07-29T09:11:02;24.70;98.50
45535;DHT22;35892;48.798;9.698;2022-07-29T09:13:33;24.90;97.90
45535;DHT22;35892;48.798;9.698;2022-07-29T09:16:02;24.90;97.50
45535;DHT22;35892;48.798;9.698;2022-07-29T09:18:43;24.80;96.50
45535;DHT22;35892;48.798;9.698;2022-07-29T09:21:15;24.70;96.80
45535;DHT22;35892;48.798;9.698;2022-07-29T09:26:41;24.90;96.80
45535;DHT22;35892;48.798;9.698;2022-07-29T09:29:12;25.00;97.10
45535;DHT22;35892;48.798;9.698;2022-07-29T09:31:42;25.00;96.90
45535;DHT22;35892;48.798;9.698;2022-07-29T09:34:15;24.90;96.40
45535;DHT22;35892;48.798;9.698;2022-07-29T09:36:43;24.70;96.20
45535;DHT22;35892;48.798;9.698;2022-07-29T09:39:10;24.50;96.70
45535;DHT22;35892;48.798;9.698;2022-07-29T09:42:05;24.50;96.70
45535;DHT22;35892;48.798;9.698;2022-07-29T09:44:48;24.50;97.20
45535;DHT22;35892;48.798;9.698;2022-07-29T09:47:17;24.60;97.00
45535;DHT22;35892;48.798;9.698;2022-07-29T09:49:55;24.50;96.90
45535;DHT22;35892;48.798;9.698;2022-07-29T09:52:25;24.60;96.80
45535;DHT22;35892;48.798;9.698;2022-07-29T09:54:52;24.70;96.70
45535;DHT22;35892;48.798;9.698;2022-07-29T09:57:24;24.80;96.60
45535;DHT22;35892;48.798;9.698;2022-07-29T10:02:37;24.80;95.80
45535;DHT22;35892;48.798;9.698;2022-07-29T10:07:51;25.00;96.10
45535;DHT22;35892;48.798;9.698;2022-07-29T10:10:35;25.10;95.90
45535;DHT22;35892;48.798;9.698;2022-07-29T10:13:13;25.20;95.40
45535;DHT22;35892;48.798;9.698;2022-07-29T10:15:43;25.30;95.10
45535;DHT22;35892;48.798;9.698;2022-07-29T10:18:13;25.40;95.50
45535;DHT22;35892;48.798;9.698;2022-07-29T10:20:42;25.50;94.90
45535;DHT22;35892;48.798;9.698;2022-07-29T10:23:09;25.70;94.20
45535;DHT22;35892;48.798;9.698;2022-07-29T10:25:39;25.80;93.60
45535;DHT22;35892;48.798;9.698;2022-07-29T10:28:12;25.70;93.40
45535;DHT22;35892;48.798;9.698;2022-07-29T10:30:42;25.60;92.90
45535;DHT22;35892;48.798;9.698;2022-07-29T10:44:06;26.70;87.90
45535;DHT22;35892;48.798;9.698;2022-07-29T10:46:43;27.00;86.40
45535;DHT22;35892;48.798;9.698;2022-07-29T10:54:42;28.00;81.40
45535;DHT22;35892;48.798;9.698;2022-07-29T10:57:30;28.00;81.70
45535;DHT22;35892;48.798;9.698;2022-07-29T11:00:27;28.20;80.40
45535;DHT22;35892;48.798;9.698;2022-07-29T11:02:54;28.10;79.90
45535;DHT22;35892;48.798;9.698;2022-07-29T11:05:25;28.00;77.20
45535;DHT22;35892;48.798;9.698;2022-07-29T11:16:14;27.70;77.20
45535;DHT22;35892;48.798;9.698;2022-07-29T11:21:43;27.70;77.30
45535;DHT22;35892;48.798;9.698;2022-07-29T11:24:25;27.70;77.50
45535;DHT22;35892;48.798;9.698;2022-07-29T11:27:13;27.80;76.90
45535;DHT22;35892;48.798;9.698;2022-07-29T11:29:52;27.90;76.10
45535;DHT22;35892;48.798;9.698;2022-07-29T11:32:25;27.80;76.10
45535;DHT22;35892;48.798;9.698;2022-07-29T11:43:53;27.20;78.50
45535;DHT22;35892;48.798;9.698;2022-07-29T11:46:55;27.00;78.40
45535;DHT22;35892;48.798;9.698;2022-07-29T11:49:26;26.60;79.20
45535;DHT22;35892;48.798;9.698;2022-07-29T11:51:59;26.50;78.70
45535;DHT22;35892;48.798;9.698;2022-07-29T11:54:33;26.20;80.10
45535;DHT22;35892;48.798;9.698;2022-07-29T11:57:23;26.00;80.90
45535;DHT22;35892;48.798;9.698;2022-07-29T12:00:07;25.90;81.40
45535;DHT22;35892;48.798;9.698;2022-07-29T12:02:43;25.80;82.00
45535;DHT22;35892;48.798;9.698;2022-07-29T12:05:14;25.70;81.70
45535;DHT22;35892;48.798;9.698;2022-07-29T12:08:10;25.60;83.70
45535;DHT22;35892;48.798;9.698;2022-07-29T12:10:40;25.60;86.60
45535;DHT22;35892;48.798;9.698;2022-07-29T12:13:10;25.50;87.60
45535;DHT22;35892;48.798;9.698;2022-07-29T12:15:38;25.40;88.40
45535;DHT22;35892;48.798;9.698;2022-07-29T12:18:18;25.40;90.60
45535;DHT22;35892;48.798;9.698;2022-07-29T12:20:59;25.30;91.60
45535;DHT22;35892;48.798;9.698;2022-07-29T12:23:33;25.20;93.60
45535;DHT22;35892;48.798;9.698;2022-07-29T12:26:05;25.10;93.60
45535;DHT22;35892;48.798;9.698;2022-07-29T12:28:39;24.90;94.60
45535;DHT22;35892;48.798;9.698;2022-07-29T12:31:12;24.80;95.30
45535;DHT22;35892;48.798;9.698;2022-07-29T12:33:39;24.70;96.00
45535;DHT22;35892;48.798;9.698;2022-07-29T12:36:13;24.70;97.00
45535;DHT22;35892;48.798;9.698;2022-07-29T12:38:43;24.80;97.20
45535;DHT22;35892;48.798;9.698;2022-07-29T12:41:11;25.00;98.30
45535;DHT22;35892;48.798;9.698;2022-07-29T12:43:56;25.40;97.00
45535;DHT22;35892;48.798;9.698;2022-07-29T12:46:23;25.60;94.90
45535;DHT22;35892;48.798;9.698;2022-07-29T12:48:51;25.70;95.20
45535;DHT22;35892;48.798;9.698;2022-07-29T12:51:38;25.70;95.10
45535;DHT22;35892;48.798;9.698;2022-07-29T12:54:10;25.60;96.60
45535;DHT22;35892;48.798;9.698;2022-07-29T12:56:44;25.60;96.40
45535;DHT22;35892;48.798;9.698;2022-07-29T12:59:19;25.50;95.20
45535;DHT22;35892;48.798;9.698;2022-07-29T13:01:48;25.30;94.80
45535;DHT22;35892;48.798;9.698;2022-07-29T13:04:29;25.00;96.50
45535;DHT22;35892;48.798;9.698;2022-07-29T13:09:44;24.70;97.70
45535;DHT22;35892;48.798;9.698;2022-07-29T13:12:14;24.50;98.40
45535;DHT22;35892;48.798;9.698;2022-07-29T13:14:43;24.50;98.50
45535;DHT22;35892;48.798;9.698;2022-07-29T13:17:21;24.60;98.50
45535;DHT22;35892;48.798;9.698;2022-07-29T13:19:52;24.70;98.40
45535;DHT22;35892;48.798;9.698;2022-07-29T13:22:23;24.60;98.30
45535;DHT22;35892;48.798;9.698;2022-07-29T13:25:01;24.60;98.90
45535;DHT22;35892;48.798;9.698;2022-07-29T13:27:32;24.70;99.20
45535;DHT22;35892;48.798;9.698;2022-07-29T13:30:01;24.90;99.00
45535;DHT22;35892;48.798;9.698;2022-07-29T13:32:31;25.00;99.60
45535;DHT22;35892;48.798;9.698;2022-07-29T13:35:02;25.00;99.10
45535;DHT22;35892;48.798;9.698;2022-07-29T13:37:32;25.10;99.80
45535;DHT22;35892;48.798;9.698;2022-07-29T13:40:02;25.30;99.60
45535;DHT22;35892;48.798;9.698;2022-07-29T13:42:31;25.20;99.00
45535;DHT22;35892;48.798;9.698;2022-07-29T13:44:58;25.10;99.40
45535;DHT22;35892;48.798;9.698;2022-07-29T13:47:25;25.00;97.30
45535;DHT22;35892;48.798;9.698;2022-07-29T13:49:59;25.10;98.10
45535;DHT22;35892;48.798;9.698;2022-07-29T13:52:28;25.20;99.70
45535;DHT22;35892;48.798;9.698;2022-07-29T13:54:57;25.20;99.80
45535;DHT22;35892;48.798;9.698;2022-07-29T13:57:24;25.10;98.90
45535;DHT22;35892;48.798;9.698;2022-07-29T13:59:51;25.00;96.70
45535;DHT22;35892;48.798;9.698;2022-07-29T14:02:20;24.90;95.10
45535;DHT22;35892;48.798;9.698;2022-07-29T14:04:52;24.80;95.10
45535;DHT22;35892;48.798;9.698;2022-07-29T14:07:20;24.80;95.00
45535;DHT22;35892;48.798;9.698;2022-07-29T14:09:47;24.70;93.00
45535;DHT22;35892;48.798;9.698;2022-07-29T14:12:13;24.50;92.10
45535;DHT22;35892;48.798;9.698;2022-07-29T14:14:40;24.40;92.30
45535;DHT22;35892;48.798;9.698;2022-07-29T14:17:08;24.30;93.40
45535;DHT22;35892;48.798;9.698;2022-07-29T14:19:38;24.20;94.60
45535;DHT22;35892;48.798;9.698;2022-07-29T14:22:08;24.10;95.40
45535;DHT22;35892;48.798;9.698;2022-07-29T14:24:36;24.10;95.80
45535;DHT22;35892;48.798;9.698;2022-07-29T14:27:05;24.10;97.40
45535;DHT22;35892;48.798;9.698;2022-07-29T14:29:33;24.10;97.80
45535;DHT22;35892;48.798;9.698;2022-07-29T14:32:07;24.20;96.00
45535;DHT22;35892;48.798;9.698;2022-07-29T14:34:36;24.20;96.90
45535;DHT22;35892;48.798;9.698;2022-07-29T14:37:04;24.00;98.10
45535;DHT22;35892;48.798;9.698;2022-07-29T14:39:37;23.90;99.20
45535;DHT22;35892;48.798;9.698;2022-07-29T14:42:09;23.90;99.20
45535;DHT22;35892;48.798;9.698;2022-07-29T14:44:39;23.80;99.50
45535;DHT22;35892;48.798;9.698;2022-07-29T14:47:07;23.80;99.80
45535;DHT22;35892;48.798;9.698;2022-07-29T14:49:36;23.80;99.90
45535;DHT22;35892;48.798;9.698;2022-07-29T14:52:03;23.80;98.80
45535;DHT22;35892;48.798;9.698;2022-07-29T14:54:30;23.90;97.00
45535;DHT22;35892;48.798;9.698;2022-07-29T14:56:57;23.90;96.90
45535;DHT22;35892;48.798;9.698;2022-07-29T14:59:26;24.00;95.40
45535;DHT22;35892;48.798;9.698;2022-07-29T15:01:56;24.00;95.80
45535;DHT22;35892;48.798;9.698;2022-07-29T15:04:23;24.00;93.90
45535;DHT22;35892;48.798;9.698;2022-07-29T15:06:50;24.00;94.10
45535;DHT22;35892;48.798;9.698;2022-07-29T15:09:21;24.10;94.40
45535;DHT22;35892;48.798;9.698;2022-07-29T15:11:48;24.30;94.20
45535;DHT22;35892;48.798;9.698;2022-07-29T15:14:15;24.40;93.80
45535;DHT22;35892;48.798;9.698;2022-07-29T15:16:41;24.30;94.10
45535;DHT22;35892;48.798;9.698;2022-07-29T15:19:13;24.20;93.90
45535;DHT22;35892;48.798;9.698;2022-07-29T15:21:42;24.20;93.80
45535;DHT22;35892;48.798;9.698;2022-07-29T15:24:16;24.20;94.00
45535;DHT22;35892;48.798;9.698;2022-07-29T15:26:43;24.10;94.40
45535;DHT22;35892;48.798;9.698;2022-07-29T15:29:10;24.20;94.40
45535;DHT22;35892;48.798;9.698;2022-07-29T15:31:39;24.30;93.60
45535;DHT22;35892;48.798;9.698;2022-07-29T15:34:07;24.30;93.80
45535;DHT22;35892;48.798;9.698;2022-07-29T15:36:36;24.30;93.20
45535;DHT22;35892;48.798;9.698;2022-07-29T15:39:22;24.20;93.00
45535;DHT22;35892;48.798;9.698;2022-07-29T15:41:49;24.10;93.20
45535;DHT22;35892;48.798;9.698;2022-07-29T15:44:17;24.20;93.30
45535;DHT22;35892;48.798;9.698;2022-07-29T15:46:44;24.20;93.50
45535;DHT22;35892;48.798;9.698;2022-07-29T15:49:39;24.20;93.50
45535;DHT22;35892;48.798;9.698;2022-07-29T15:52:12;24.20;93.90
45535;DHT22;35892;48.798;9.698;2022-07-29T15:54:39;24.30;93.70
45535;DHT22;35892;48.798;9.698;2022-07-29T15:57:09;24.40;93.40
45535;DHT22;35892;48.798;9.698;2022-07-29T15:59:35;24.30;93.60
45535;DHT22;35892;48.798;9.698;2022-07-29T16:02:03;24.20;93.50
45535;DHT22;35892;48.798;9.698;2022-07-29T16:04:30;24.20;93.70
45535;DHT22;35892;48.798;9.698;2022-07-29T16:06:57;24.10;93.90
45535;DHT22;35892;48.798;9.698;2022-07-29T16:09:27;24.10;94.30
45535;DHT22;35892;48.798;9.698;2022-07-29T16:11:54;24.20;94.40
45535;DHT22;35892;48.798;9.698;2022-07-29T16:14:22;24.30;94.50
45535;DHT22;35892;48.798;9.698;2022-07-29T16:16:55;24.40;94.80
45535;DHT22;35892;48.798;9.698;2022-07-29T16:19:23;24.40;94.60
45535;DHT22;35892;48.798;9.698;2022-07-29T16:21:50;24.60;94.10
45535;DHT22;35892;48.798;9.698;2022-07-29T16:24:17;24.60;93.80
45535;DHT22;35892;48.798;9.698;2022-07-29T16:26:44;24.60;93.60
45535;DHT22;35892;48.798;9.698;2022-07-29T16:29:11;24.60;93.80
45535;DHT22;35892;48.798;9.698;2022-07-29T16:31:40;24.60;94.10
45535;DHT22;35892;48.798;9.698;2022-07-29T16:34:07;24.70;93.90
45535;DHT22;35892;48.798;9.698;2022-07-29T16:36:34;24.80;93.80
45535;DHT22;35892;48.798;9.698;2022-07-29T16:39:00;24.70;93.30
45535;DHT22;35892;48.798;9.698;2022-07-29T16:41:27;24.70;93.30
45535;DHT22;35892;48.798;9.698;2022-07-29T16:43:55;24.70;93.60
45535;DHT22;35892;48.798;9.698;2022-07-29T16:46:21;24.70;93.80
45535;DHT22;35892;48.798;9.698;2022-07-29T16:48:51;24.80;93.80
45535;DHT22;35892;48.798;9.698;2022-07-29T16:51:18;24.70;94.10
45535;DHT22;35892;48.798;9.698;2022-07-29T16:53:47;24.70;93.40